createdAt,value
2022-09-29T00:00:55.212Z,8.05
2022-09-29T00:03:23.345Z,7.65
2022-09-29T00:05:55.452Z,6.90
2022-09-29T00:08:24.760Z,6.57
2022-09-29T00:10:52.062Z,7.50
2022-09-29T00:13:19.549Z,7.15
2022-09-29T00:15:56.528Z,5.63
2022-09-29T00:18:23.692Z,6.32
2022-09-29T00:21:07.986Z,6.75
2022-09-29T00:23:36.322Z,7.03
2022-09-29T00:26:17.281Z,6.57
2022-09-29T00:28:54.111Z,6.10
2022-09-29T00:31:21.752Z,6.53
2022-09-29T00:33:49.089Z,6.40
2022-09-29T00:36:19.645Z,6.50
2022-09-29T00:38:47.939Z,6.38
2022-09-29T00:41:21.802Z,6.30
2022-09-29T00:43:54.814Z,6.45
2022-09-29T00:46:38.126Z,6.82
2022-09-29T00:49:32.175Z,6.10
2022-09-29T00:52:14.736Z,4.93
2022-09-29T00:55:07.764Z,5.97
2022-09-29T00:57:47.141Z,6.55
2022-09-29T01:00:15.950Z,6.50
2022-09-29T01:03:04.753Z,7.05
2022-09-29T01:05:46.029Z,6.15
2022-09-29T01:08:53.807Z,5.93
2022-09-29T01:11:22.306Z,4.93
2022-09-29T01:13:50.035Z,6.28
2022-09-29T01:16:17.354Z,6.38
2022-09-29T01:18:46.590Z,5.22
2022-09-29T01:21:32.014Z,6.35
2022-09-29T01:24:14.152Z,5.18
2022-09-29T01:27:21.622Z,5.40
2022-09-29T01:30:22.776Z,6.78
2022-09-29T01:33:00.823Z,4.18
2022-09-29T01:35:35.034Z,5.15
2022-09-29T01:38:11.279Z,4.93
2022-09-29T01:40:57.887Z,3.95
2022-09-29T01:43:35.294Z,4.15
2022-09-29T01:46:31.846Z,4.15
2022-09-29T01:49:01.101Z,4.53
2022-09-29T01:51:57.098Z,4.18
2022-09-29T01:54:36.871Z,4.50
2022-09-29T01:57:15.129Z,4.55
2022-09-29T01:59:54.464Z,4.70
2022-09-29T02:02:30.149Z,4.93
2022-09-29T02:05:02.395Z,5.50
2022-09-29T02:07:37.410Z,6.00
2022-09-29T02:10:19.844Z,5.25
2022-09-29T02:12:51.088Z,6.45
2022-09-29T02:15:27.337Z,5.38
2022-09-29T02:17:57.864Z,5.13
2022-09-29T02:20:25.043Z,6.10
2022-09-29T02:22:52.387Z,8.27
2022-09-29T02:25:20.708Z,6.93
2022-09-29T02:27:50.735Z,5.97
2022-09-29T02:30:18.531Z,4.32
2022-09-29T02:32:48.027Z,5.05
2022-09-29T02:35:16.399Z,5.75
2022-09-29T02:38:04.877Z,4.53
2022-09-29T02:40:57.544Z,4.53
2022-09-29T02:43:36.665Z,4.80
2022-09-29T02:46:34.832Z,4.82
2022-09-29T02:49:08.185Z,4.75
2022-09-29T02:51:45.117Z,4.00
2022-09-29T02:54:33.060Z,4.50
2022-09-29T02:57:31.922Z,4.63
2022-09-29T03:00:10.430Z,3.90
2022-09-29T03:02:39.671Z,4.25
2022-09-29T03:05:10.702Z,4.35
2022-09-29T03:07:38.873Z,5.18
2022-09-29T03:10:07.610Z,4.80
2022-09-29T03:12:35.516Z,4.55
2022-09-29T03:15:02.976Z,4.22
2022-09-29T03:17:30.401Z,4.38
2022-09-29T03:19:58.032Z,5.18
2022-09-29T03:22:25.497Z,4.65
2022-09-29T03:24:52.676Z,4.88
2022-09-29T03:27:19.985Z,4.85
2022-09-29T03:29:47.236Z,4.90
2022-09-29T03:32:14.539Z,3.92
2022-09-29T03:34:41.580Z,4.50
2022-09-29T03:37:08.969Z,4.35
2022-09-29T03:39:36.991Z,4.40
2022-09-29T03:42:04.311Z,3.50
2022-09-29T03:44:31.900Z,3.70
2022-09-29T03:46:59.114Z,4.57
2022-09-29T03:49:26.329Z,5.05
2022-09-29T03:51:53.632Z,4.15
2022-09-29T03:54:21.104Z,3.83
2022-09-29T03:56:48.569Z,3.38
2022-09-29T03:59:16.125Z,3.55
2022-09-29T04:01:43.422Z,3.75
2022-09-29T04:04:11.097Z,3.53
2022-09-29T04:06:38.265Z,2.97
2022-09-29T04:09:05.395Z,3.40
2022-09-29T04:11:32.633Z,3.22
2022-09-29T04:13:59.816Z,3.03
2022-09-29T04:16:27.211Z,3.15
2022-09-29T04:18:54.437Z,3.42
2022-09-29T04:21:21.725Z,4.10
2022-09-29T04:23:50.189Z,3.28
2022-09-29T04:26:17.749Z,3.75
2022-09-29T04:28:45.044Z,3.88
2022-09-29T04:31:12.446Z,2.88
2022-09-29T04:33:40.165Z,4.10
2022-09-29T04:36:07.551Z,3.33
2022-09-29T04:38:34.900Z,3.55
2022-09-29T04:41:02.200Z,3.95
2022-09-29T04:43:29.612Z,3.70
2022-09-29T04:46:08.408Z,3.53
2022-09-29T04:48:36.670Z,3.45
2022-09-29T04:51:05.659Z,3.80
2022-09-29T04:53:33.638Z,4.40
2022-09-29T04:56:05.925Z,3.92
2022-09-29T04:58:33.128Z,3.92
2022-09-29T05:01:13.260Z,4.20
2022-09-29T05:03:41.359Z,3.30
2022-09-29T05:06:10.274Z,4.25
2022-09-29T05:08:37.659Z,4.95
2022-09-29T05:11:06.850Z,3.50
2022-09-29T05:13:34.243Z,3.47
2022-09-29T05:16:01.584Z,3.58
2022-09-29T05:18:28.925Z,3.83
2022-09-29T05:21:22.882Z,4.22
2022-09-29T05:23:43.707Z,4.05
2022-09-29T05:26:12.951Z,4.38
2022-09-29T05:28:45.331Z,3.60
2022-09-29T05:31:13.089Z,3.72
2022-09-29T05:33:40.432Z,4.20
2022-09-29T05:36:12.942Z,4.00
2022-09-29T05:38:40.779Z,4.35
2022-09-29T05:41:11.409Z,4.80
2022-09-29T05:43:39.675Z,3.30
2022-09-29T05:46:10.132Z,4.00
2022-09-29T05:48:38.174Z,4.57
2022-09-29T05:51:11.533Z,5.43
2022-09-29T05:53:39.043Z,4.97
2022-09-29T05:56:07.959Z,4.78
2022-09-29T05:58:37.302Z,9.73
2022-09-29T06:01:09.442Z,10.15
2022-09-29T06:03:37.682Z,7.35
2022-09-29T06:06:10.201Z,6.28
2022-09-29T06:08:38.563Z,4.47
2022-09-29T06:11:08.273Z,5.28
2022-09-29T06:13:39.306Z,7.13
2022-09-29T06:16:07.123Z,6.78
2022-09-29T06:18:34.475Z,7.68
2022-09-29T06:21:07.640Z,7.90
2022-09-29T06:23:35.348Z,8.07
2022-09-29T06:26:05.017Z,9.15
2022-09-29T06:28:33.167Z,7.30
2022-09-29T06:31:05.995Z,8.35
2022-09-29T06:33:37.013Z,7.97
2022-09-29T06:36:39.729Z,6.82
2022-09-29T06:39:09.567Z,7.20
2022-09-29T06:41:36.916Z,7.00
2022-09-29T06:44:04.511Z,7.38
2022-09-29T06:46:32.236Z,8.40
2022-09-29T06:48:59.606Z,7.68
2022-09-29T06:51:40.657Z,7.45
2022-09-29T06:54:36.860Z,7.00
2022-09-29T06:57:04.055Z,7.78
2022-09-29T06:59:31.232Z,7.88
2022-09-29T07:01:58.608Z,8.63
2022-09-29T07:04:26.012Z,9.02
2022-09-29T07:06:53.383Z,7.90
2022-09-29T07:09:20.988Z,8.88
2022-09-29T07:11:51.413Z,10.10
2022-09-29T07:14:23.009Z,12.40
2022-09-29T07:16:50.820Z,12.75
2022-09-29T07:19:20.198Z,11.70
2022-09-29T07:21:48.454Z,12.55
2022-09-29T07:24:15.848Z,12.80
2022-09-29T07:26:43.025Z,12.55
2022-09-29T07:29:15.311Z,14.90
2022-09-29T07:31:50.715Z,13.25
2022-09-29T07:34:20.399Z,15.45
2022-09-29T07:36:47.967Z,15.90
2022-09-29T07:39:15.277Z,15.48
2022-09-29T07:41:42.531Z,15.20
2022-09-29T07:44:09.665Z,16.13
2022-09-29T07:46:37.173Z,16.65
2022-09-29T07:49:04.510Z,15.13
2022-09-29T07:51:32.745Z,16.92
2022-09-29T07:54:05.905Z,16.80
2022-09-29T07:56:33.436Z,18.42
2022-09-29T07:59:02.569Z,17.55
2022-09-29T08:01:30.399Z,16.95
2022-09-29T08:03:57.769Z,17.33
2022-09-29T08:06:26.641Z,19.00
2022-09-29T08:09:03.382Z,19.42
2022-09-29T08:11:33.314Z,19.98
2022-09-29T08:14:01.558Z,16.77
2022-09-29T08:16:29.744Z,19.45
2022-09-29T08:18:56.915Z,18.13
2022-09-29T08:21:24.237Z,20.38
2022-09-29T08:23:51.651Z,18.23
2022-09-29T08:26:31.474Z,18.63
2022-09-29T08:29:08.515Z,18.85
2022-09-29T08:31:38.812Z,19.27
2022-09-29T08:34:07.962Z,19.42
2022-09-29T08:36:36.979Z,17.88
2022-09-29T08:39:04.316Z,18.27
2022-09-29T08:41:48.148Z,18.60
2022-09-29T08:44:29.616Z,17.52
2022-09-29T08:47:16.001Z,17.83
2022-09-29T08:49:49.103Z,16.60
2022-09-29T08:52:24.600Z,16.77
2022-09-29T08:54:58.848Z,15.20
2022-09-29T08:57:26.673Z,14.77
2022-09-29T08:59:59.506Z,15.45
2022-09-29T09:03:04.538Z,15.10
2022-09-29T09:05:40.810Z,13.55
2022-09-29T09:08:14.920Z,14.20
2022-09-29T09:11:24.580Z,17.83
2022-09-29T09:14:08.305Z,13.68
2022-09-29T09:16:44.436Z,14.38
2022-09-29T09:19:29.155Z,12.25
2022-09-29T09:22:25.670Z,11.98
2022-09-29T09:24:59.263Z,10.77
2022-09-29T09:27:35.579Z,11.50
2022-09-29T09:30:16.640Z,11.27
2022-09-29T09:33:28.294Z,11.63
2022-09-29T09:36:31.285Z,10.93
2022-09-29T09:39:18.526Z,9.80
2022-09-29T09:41:50.802Z,8.10
2022-09-29T09:44:38.573Z,6.97
2022-09-29T09:47:14.786Z,7.47
2022-09-29T09:49:48.929Z,7.35
2022-09-29T09:52:24.111Z,6.10
2022-09-29T09:54:58.840Z,7.90
2022-09-29T09:57:50.651Z,6.35
2022-09-29T10:00:23.081Z,6.93
2022-09-29T10:02:56.632Z,6.75
2022-09-29T10:05:29.816Z,7.25
2022-09-29T10:07:57.490Z,6.97
2022-09-29T10:10:27.439Z,6.18
2022-09-29T10:13:24.850Z,5.43
2022-09-29T10:16:04.385Z,6.38
2022-09-29T10:18:37.150Z,5.18
2022-09-29T10:21:04.352Z,7.35
2022-09-29T10:23:33.041Z,8.07
2022-09-29T10:26:28.218Z,16.17
2022-09-29T10:29:16.691Z,8.27
2022-09-29T10:31:44.164Z,10.05
2022-09-29T10:34:13.839Z,12.18
2022-09-29T10:36:55.385Z,7.15
2022-09-29T10:39:32.802Z,8.93
2022-09-29T10:42:00.597Z,13.57
2022-09-29T10:44:33.661Z,8.23
2022-09-29T10:47:01.377Z,16.33
2022-09-29T10:49:29.754Z,6.55
2022-09-29T10:52:05.102Z,6.80
2022-09-29T10:57:16.133Z,8.93
2022-09-29T10:59:51.302Z,8.85
2022-09-29T11:02:41.144Z,8.35
2022-09-29T11:05:20.666Z,7.65
2022-09-29T11:07:50.579Z,8.07
2022-09-29T11:10:39.240Z,8.05
2022-09-29T11:13:24.907Z,6.85
2022-09-29T11:15:52.367Z,24.20
2022-09-29T11:18:23.595Z,24.50
2022-09-29T11:21:04.326Z,14.45
2022-09-29T11:23:47.187Z,9.57
2022-09-29T11:26:34.515Z,9.00
2022-09-29T11:29:21.194Z,19.67
2022-09-29T11:32:15.146Z,12.85
2022-09-29T11:34:51.950Z,8.85
2022-09-29T11:37:46.668Z,8.82
2022-09-29T11:40:40.293Z,7.90
2022-09-29T11:43:31.632Z,6.43
2022-09-29T11:46:48.337Z,4.30
2022-09-29T11:49:36.070Z,4.00
2022-09-29T11:52:35.712Z,3.53
2022-09-29T11:55:36.363Z,3.20
2022-09-29T11:58:37.653Z,4.28
2022-09-29T12:01:22.078Z,3.67
2022-09-29T12:03:50.027Z,2.60
2022-09-29T12:06:26.307Z,3.47
2022-09-29T12:09:37.188Z,3.15
2022-09-29T12:12:42.481Z,2.78
2022-09-29T12:15:33.413Z,3.10
2022-09-29T12:18:12.114Z,2.92
2022-09-29T12:20:48.106Z,3.10
2022-09-29T12:23:19.728Z,3.10
2022-09-29T12:26:13.738Z,2.42
2022-09-29T12:28:51.817Z,2.90
2022-09-29T12:31:25.750Z,2.85
2022-09-29T12:34:06.451Z,2.70
2022-09-29T12:36:54.173Z,2.47
2022-09-29T12:39:44.884Z,2.80
2022-09-29T12:42:24.781Z,3.58
2022-09-29T12:45:25.665Z,2.50
2022-09-29T12:48:17.521Z,2.95
2022-09-29T12:51:09.962Z,3.05
2022-09-29T12:53:52.500Z,2.53
2022-09-29T12:56:26.782Z,3.55
2022-09-29T12:59:23.670Z,3.67
2022-09-29T13:01:55.201Z,4.05
2022-09-29T13:04:40.365Z,3.22
2022-09-29T13:07:25.948Z,4.18
2022-09-29T13:10:01.574Z,3.88
2022-09-29T13:12:47.453Z,3.53
2022-09-29T13:18:24.002Z,4.20
2022-09-29T13:21:16.475Z,3.65
2022-09-29T13:23:52.598Z,4.65
2022-09-29T13:26:44.693Z,4.63
2022-09-29T13:29:20.691Z,4.53
2022-09-29T13:31:49.981Z,4.55
2022-09-29T13:34:38.751Z,4.13
2022-09-29T13:37:19.823Z,5.10
2022-09-29T13:40:10.614Z,3.70
2022-09-29T13:42:43.440Z,4.43
2022-09-29T13:45:31.609Z,4.60
2022-09-29T13:48:02.441Z,4.07
2022-09-29T13:50:49.781Z,4.45
2022-09-29T13:53:20.595Z,5.10
2022-09-29T13:56:02.911Z,4.35
2022-09-29T13:58:39.602Z,7.75
2022-09-29T14:01:10.129Z,7.00
2022-09-29T14:03:43.378Z,6.28
2022-09-29T14:06:41.030Z,4.65
2022-09-29T14:09:20.372Z,6.47
2022-09-29T14:11:57.770Z,6.80
2022-09-29T14:14:39.407Z,4.80
2022-09-29T14:17:21.999Z,4.72
2022-09-29T14:20:24.298Z,4.53
2022-09-29T14:23:00.705Z,14.63
2022-09-29T14:25:33.057Z,20.58
2022-09-29T14:28:05.098Z,15.32
2022-09-29T14:30:38.845Z,16.83
2022-09-29T14:33:23.483Z,12.18
2022-09-29T14:36:00.330Z,9.00
2022-09-29T14:38:44.358Z,5.50
2022-09-29T14:41:11.505Z,4.90
2022-09-29T14:43:52.318Z,6.65
2022-09-29T14:46:47.837Z,6.22
2022-09-29T14:50:11.631Z,4.40
2022-09-29T14:53:08.421Z,4.40
2022-09-29T14:55:54.985Z,4.05
2022-09-29T14:58:38.751Z,23.98
2022-09-29T15:01:21.115Z,11.95
2022-09-29T15:03:51.069Z,4.93
2022-09-29T15:06:18.460Z,4.57
2022-09-29T15:09:04.291Z,4.53
2022-09-29T15:11:46.393Z,4.85
2022-09-29T15:14:28.541Z,12.82
2022-09-29T15:17:29.463Z,5.78
2022-09-29T15:20:09.460Z,5.90
2022-09-29T15:23:19.412Z,7.05
2022-09-29T15:25:56.731Z,4.90
2022-09-29T15:28:32.185Z,8.50
2022-09-29T15:33:36.945Z,5.03
2022-09-29T15:36:07.907Z,7.20
2022-09-29T15:38:40.311Z,5.75
2022-09-29T15:41:13.766Z,3.70
2022-09-29T15:43:45.221Z,4.22
2022-09-29T15:46:37.545Z,3.40
2022-09-29T15:49:10.589Z,3.72
2022-09-29T15:59:11.751Z,3.83
2022-09-29T16:02:20.705Z,3.55
2022-09-29T16:15:22.579Z,3.53
2022-09-29T16:21:11.609Z,4.82
2022-09-29T16:24:54.889Z,5.13
2022-09-29T16:28:17.775Z,5.43
2022-09-29T16:31:04.922Z,5.00
2022-09-29T16:33:35.147Z,6.38
2022-09-29T16:36:18.793Z,7.20
2022-09-29T16:39:04.474Z,7.13
2022-09-29T16:41:38.329Z,7.03
2022-09-29T16:44:16.583Z,7.97
2022-09-29T16:47:21.340Z,7.32
2022-09-29T16:49:57.276Z,7.50
2022-09-29T16:52:27.380Z,7.97
2022-09-29T16:55:29.741Z,11.07
2022-09-29T16:58:05.332Z,10.93
2022-09-29T17:00:37.206Z,8.52
2022-09-29T17:03:05.984Z,8.52
2022-09-29T17:05:48.125Z,9.20
2022-09-29T17:08:31.516Z,7.28
2022-09-29T17:10:58.995Z,9.05
2022-09-29T17:13:35.299Z,7.75
2022-09-29T17:16:05.804Z,7.85
2022-09-29T17:18:33.093Z,7.03
2022-09-29T17:21:00.684Z,7.07
2022-09-29T17:23:28.082Z,8.20
2022-09-29T17:26:15.298Z,8.43
2022-09-29T17:28:43.346Z,8.75
2022-09-29T17:31:15.654Z,7.20
2022-09-29T17:33:43.213Z,8.32
2022-09-29T17:36:21.757Z,45.10
2022-09-29T17:38:51.104Z,12.30
2022-09-29T17:41:18.563Z,9.95
2022-09-29T17:43:53.515Z,9.65
